Time;durP1;ratioP1;P1;durP2;ratioP2;P2;SDS_P1;SDS_P2;PMS_P1;PMS_P2;Temp;Humidity;BMP_temperature;BMP_pressure;BME280_temperature;BME280_humidity;BME280_pressure;Samples;Min_cycle;Max_cycle;Signal;HPM_P1;HPM_P2
2022/01/04 00:01:25;;;;;;;2.38;2.28;;;9.60;86.50;;;;;;5053732;28;20209;-56
2022/01/04 00:03:51;;;;;;;2.50;2.28;;;9.70;86.60;;;;;;5053641;28;20202;-54
2022/01/04 00:06:20;;;;;;;2.20;2.10;;;9.70;86.60;;;;;;5053491;28;20236;-62
2022/01/04 00:08:46;;;;;;;2.30;2.10;;;9.70;86.60;;;;;;5053539;28;20213;-56
2022/01/04 00:11:17;;;;;;;3.28;2.30;;;9.80;86.70;;;;;;5051996;28;20277;-58
2022/01/04 00:13:45;;;;;;;2.20;2.10;;;9.80;86.40;;;;;;5053005;28;20223;-58
2022/01/04 00:16:13;;;;;;;2.58;2.47;;;9.70;86.70;;;;;;5053428;28;20549;-58
2022/01/04 00:18:40;;;;;;;2.60;2.40;;;9.70;87.00;;;;;;5053223;28;20249;-62
2022/01/04 00:21:08;;;;;;;2.10;2.00;;;9.60;87.40;;;;;;5053306;28;20218;-58
2022/01/04 00:23:36;;;;;;;2.28;2.08;;;9.60;87.60;;;;;;5053213;28;20682;-58
2022/01/04 00:26:03;;;;;;;3.75;2.22;;;9.60;87.80;;;;;;5051753;28;20252;-60
2022/01/04 00:28:30;;;;;;;2.90;2.45;;;9.60;87.80;;;;;;5053189;28;20205;-57
2022/01/04 00:30:57;;;;;;;2.05;1.95;;;9.60;87.90;;;;;;5053201;28;20572;-60
2022/01/04 00:33:24;;;;;;;3.03;1.90;;;9.60;87.80;;;;;;5053047;28;20201;-60
2022/01/04 00:35:51;;;;;;;2.20;2.00;;;9.60;87.90;;;;;;5052985;28;20702;-54
2022/01/04 00:38:18;;;;;;;2.40;2.15;;;9.70;87.60;;;;;;5053099;28;20204;-56
2022/01/04 00:40:46;;;;;;;2.00;1.90;;;9.70;87.60;;;;;;5051597;28;20220;-59
2022/01/04 00:43:13;;;;;;;2.53;2.10;;;9.70;87.60;;;;;;5053128;28;20284;-58
2022/01/04 00:45:40;;;;;;;5.38;2.20;;;9.60;88.00;;;;;;5052774;28;20225;-58
2022/01/04 00:50:53;;;;;;;2.47;1.83;;;9.70;88.10;;;;;;5052921;28;20208;-58
2022/01/04 00:53:20;;;;;;;4.05;3.63;;;9.70;87.80;;;;;;5052822;28;20212;-58
2022/01/04 00:55:48;;;;;;;2.40;2.17;;;9.80;87.80;;;;;;5051474;28;20219;-60
2022/01/04 00:58:15;;;;;;;2.20;2.00;;;9.80;87.80;;;;;;5052614;28;20208;-58
2022/01/04 01:00:42;;;;;;;2.30;2.10;;;9.70;87.90;;;;;;5052818;28;20204;-61
2022/01/04 01:03:09;;;;;;;3.08;1.92;;;9.70;88.30;;;;;;5052804;28;20202;-61
2022/01/04 01:05:36;;;;;;;2.28;1.90;;;9.70;88.60;;;;;;5052637;28;20244;-61
2022/01/04 01:08:03;;;;;;;2.67;2.05;;;9.70;88.40;;;;;;5052659;28;20296;-57
2022/01/04 01:10:42;;;;;;;1.98;1.77;;;9.80;88.30;;;;;;5051386;28;20630;-59
2022/01/04 01:13:11;;;;;;;2.13;1.90;;;9.80;88.10;;;;;;5052581;28;20200;-60
2022/01/04 01:15:40;;;;;;;2.70;1.92;;;9.70;88.10;;;;;;5052680;28;20205;-61
2022/01/04 01:18:07;;;;;;;1.77;1.67;;;9.80;88.30;;;;;;5052584;28;20229;-60
2022/01/04 01:20:34;;;;;;;2.30;2.10;;;9.70;88.40;;;;;;5052707;28;20197;-59
2022/01/04 01:23:01;;;;;;;2.03;1.92;;;9.70;88.70;;;;;;5052555;28;20209;-61
2022/01/04 01:25:28;;;;;;;2.20;2.10;;;9.80;88.70;;;;;;5053469;28;20670;-59
2022/01/04 01:27:55;;;;;;;2.03;1.92;;;9.80;88.70;;;;;;5056420;28;20691;-60
2022/01/04 01:30:25;;;;;;;2.22;2.03;;;9.80;88.80;;;;;;5056869;28;20566;-62
2022/01/04 01:32:52;;;;;;;2.00;1.90;;;9.70;88.80;;;;;;5056605;28;20205;-59
2022/01/04 01:35:19;;;;;;;2.15;1.95;;;9.60;89.40;;;;;;5056642;28;20241;-62
2022/01/04 01:37:46;;;;;;;2.88;2.10;;;9.60;89.50;;;;;;5056268;28;20205;-61
2022/01/04 01:40:13;;;;;;;2.63;2.13;;;9.70;89.50;;;;;;5056278;28;20209;-61
2022/01/04 01:42:40;;;;;;;3.60;2.20;;;9.60;89.60;;;;;;5054806;28;20212;-61
2022/01/04 01:45:11;;;;;;;3.92;1.90;;;9.60;89.60;;;;;;5056417;28;20271;-60
2022/01/04 01:47:41;;;;;;;2.33;2.10;;;9.60;89.60;;;;;;5056158;28;20225;-60
2022/01/04 01:50:09;;;;;;;2.55;2.03;;;9.60;89.90;;;;;;5056420;28;20598;-61
2022/01/04 01:52:36;;;;;;;2.38;2.17;;;9.70;89.50;;;;;;5055978;28;20205;-59
2022/01/04 01:55:03;;;;;;;3.40;2.40;;;9.80;89.30;;;;;;5056124;28;20639;-58
2022/01/04 01:57:30;;;;;;;3.75;2.00;;;9.70;89.50;;;;;;5054545;28;20205;-62
2022/01/04 01:59:57;;;;;;;2.63;2.22;;;9.80;89.10;;;;;;5055991;28;20205;-59
2022/01/04 02:02:24;;;;;;;2.33;2.20;;;9.70;89.30;;;;;;5056004;28;20213;-55
2022/01/04 02:04:52;;;;;;;2.50;2.30;;;9.70;89.50;;;;;;5055857;28;20656;-58
2022/01/04 02:07:21;;;;;;;2.65;2.15;;;9.80;89.10;;;;;;5055599;28;20621;-59
2022/01/04 02:09:58;;;;;;;4.07;2.40;;;9.70;89.20;;;;;;5055778;28;20201;-57
2022/01/04 02:12:25;;;;;;;2.42;2.20;;;9.70;89.30;;;;;;5054290;28;20205;-59
2022/01/04 02:14:52;;;;;;;2.53;2.33;;;9.60;89.40;;;;;;5055906;28;20198;-60
2022/01/04 02:17:19;;;;;;;3.33;2.65;;;9.60;89.50;;;;;;5055579;28;20236;-59
2022/01/04 02:19:47;;;;;;;2.40;2.10;;;9.60;89.40;;;;;;5055484;28;20559;-58
2022/01/04 02:22:14;;;;;;;3.05;2.75;;;9.70;89.20;;;;;;5055546;28;20202;-59
2022/01/04 02:24:41;;;;;;;2.63;2.30;;;9.80;88.60;;;;;;5055516;28;20706;-61
2022/01/04 02:27:08;;;;;;;3.05;2.40;;;9.80;88.80;;;;;;5053923;28;20319;-58
2022/01/04 02:29:35;;;;;;;2.80;2.60;;;9.80;88.70;;;;;;5055527;28;20280;-57
2022/01/04 02:32:02;;;;;;;2.50;2.30;;;9.70;88.80;;;;;;5055385;28;20198;-59
2022/01/04 02:34:28;;;;;;;2.65;2.42;;;9.80;88.70;;;;;;5055401;28;20201;-58
2022/01/04 02:36:57;;;;;;;2.78;2.50;;;9.90;88.50;;;;;;5054768;28;20207;-59
2022/01/04 02:39:23;;;;;;;2.40;2.20;;;9.90;87.70;;;;;;5055277;28;20300;-62
2022/01/04 02:41:50;;;;;;;3.40;2.90;;;9.80;87.50;;;;;;5053742;28;20201;-59
2022/01/04 02:44:17;;;;;;;3.58;2.40;;;9.80;87.80;;;;;;5055012;28;20755;-59
2022/01/04 02:46:44;;;;;;;3.55;2.85;;;9.90;87.90;;;;;;5054885;28;20714;-59
2022/01/04 02:49:11;;;;;;;3.75;2.78;;;9.90;87.40;;;;;;5055046;28;20224;-58
2022/01/04 02:51:38;;;;;;;2.92;2.70;;;10.00;87.00;;;;;;5055024;28;20292;-58
2022/01/04 02:54:07;;;;;;;2.90;2.60;;;10.00;86.90;;;;;;5054881;28;20198;-56
2022/01/04 02:56:34;;;;;;;4.45;2.70;;;10.10;86.50;;;;;;5053520;28;20215;-61
2022/01/04 02:59:03;;;;;;;2.97;2.47;;;10.10;86.10;;;;;;5054994;28;20233;-57
2022/01/04 03:01:31;;;;;;;3.00;2.65;;;10.10;86.20;;;;;;5054745;28;20201;-60
2022/01/04 03:03:58;;;;;;;4.10;2.88;;;10.30;86.00;;;;;;5054874;28;20201;-59
2022/01/04 03:06:25;;;;;;;3.25;3.05;;;10.30;85.40;;;;;;5054784;28;20229;-59
2022/01/04 03:08:54;;;;;;;2.90;2.70;;;10.30;85.20;;;;;;5054688;28;20208;-61
2022/01/04 03:11:22;;;;;;;2.75;2.55;;;10.20;85.40;;;;;;5053142;28;20381;-59
2022/01/04 03:13:49;;;;;;;2.70;2.38;;;10.10;85.80;;;;;;5054695;28;20570;-60
2022/01/04 03:16:16;;;;;;;2.75;2.45;;;10.00;86.20;;;;;;5054603;28;20743;-59
2022/01/04 03:19:02;;;;;;;3.03;2.72;;;9.90;86.50;;;;;;5054432;28;20244;-60
2022/01/04 03:21:29;;;;;;;2.80;2.50;;;9.80;87.10;;;;;;5054465;28;20568;-58
2022/01/04 03:23:56;;;;;;;3.85;3.13;;;9.80;87.60;;;;;;5054540;28;20210;-59
2022/01/04 03:26:25;;;;;;;4.05;2.65;;;9.80;87.80;;;;;;5052797;28;20292;-60
2022/01/04 03:28:52;;;;;;;2.90;2.70;;;9.70;87.90;;;;;;5054482;28;20682;-60
2022/01/04 03:31:18;;;;;;;3.45;2.90;;;9.70;88.30;;;;;;5054326;28;20207;-60
2022/01/04 03:33:45;;;;;;;3.35;3.00;;;9.70;88.00;;;;;;5054358;28;20292;-62
2022/01/04 03:36:12;;;;;;;2.92;2.72;;;9.60;87.70;;;;;;5054276;28;20206;-61
2022/01/04 03:38:39;;;;;;;3.13;2.92;;;9.60;88.00;;;;;;5054193;28;20201;-61
2022/01/04 03:41:08;;;;;;;3.25;3.05;;;9.60;88.50;;;;;;5052511;28;20624;-59
2022/01/04 03:43:37;;;;;;;3.45;3.15;;;9.60;88.00;;;;;;5054018;28;20205;-61
2022/01/04 03:46:05;;;;;;;3.50;3.20;;;9.60;88.50;;;;;;5053977;28;20201;-63
2022/01/04 03:48:32;;;;;;;3.35;3.05;;;9.60;88.10;;;;;;5053033;28;20576;-60
2022/01/04 03:50:59;;;;;;;3.30;3.10;;;9.70;88.30;;;;;;5054031;28;20601;-56
2022/01/04 03:53:26;;;;;;;3.65;3.45;;;9.70;88.20;;;;;;5053791;28;20205;-57
2022/01/04 03:55:53;;;;;;;4.00;3.70;;;9.70;88.30;;;;;;5052571;28;20702;-60
2022/01/04 03:58:20;;;;;;;3.45;3.25;;;9.70;88.10;;;;;;5053501;28;20670;-58
2022/01/04 04:00:48;;;;;;;3.40;3.20;;;9.70;88.30;;;;;;5053697;28;20201;-61
2022/01/04 04:03:15;;;;;;;3.28;3.00;;;9.70;88.50;;;;;;5053635;28;20198;-61
2022/01/04 04:05:42;;;;;;;3.35;3.10;;;9.60;88.30;;;;;;5053681;28;20402;-61
2022/01/04 04:08:09;;;;;;;3.17;2.97;;;9.60;88.30;;;;;;5053407;28;20324;-60
2022/01/04 04:10:36;;;;;;;3.05;2.85;;;9.60;88.30;;;;;;5052006;28;20232;-58
2022/01/04 04:13:03;;;;;;;3.25;3.05;;;9.70;87.90;;;;;;5053295;28;20205;-62
2022/01/04 04:15:31;;;;;;;2.88;2.67;;;9.70;88.00;;;;;;5053377;28;20678;-60
2022/01/04 04:17:59;;;;;;;3.10;3.00;;;9.70;88.20;;;;;;5053342;28;20684;-61
2022/01/04 04:20:26;;;;;;;3.65;3.45;;;9.70;88.50;;;;;;5053516;28;20202;-59
2022/01/04 04:22:53;;;;;;;3.20;3.00;;;9.70;88.80;;;;;;5053030;28;20205;-59
2022/01/04 04:25:20;;;;;;;3.00;2.88;;;9.70;88.50;;;;;;5053304;28;20201;-58
2022/01/04 04:27:47;;;;;;;3.28;3.08;;;9.70;89.20;;;;;;5052255;28;20229;-61
2022/01/04 04:30:14;;;;;;;3.00;2.80;;;9.70;88.80;;;;;;5053204;28;20197;-55
2022/01/04 04:32:40;;;;;;;2.95;2.85;;;9.80;88.80;;;;;;5053205;28;20205;-60
2022/01/04 04:35:09;;;;;;;3.28;2.97;;;9.80;89.00;;;;;;5053225;28;20236;-62
2022/01/04 04:37:36;;;;;;;2.95;2.75;;;9.80;89.50;;;;;;5053066;28;20199;-64
2022/01/04 04:40:03;;;;;;;3.22;2.97;;;9.80;89.70;;;;;;5053048;28;20205;-61
2022/01/04 04:42:30;;;;;;;3.55;3.25;;;9.80;89.90;;;;;;5051835;28;20206;-60
2022/01/04 04:44:57;;;;;;;2.90;2.80;;;9.80;90.40;;;;;;5053025;28;20241;-61
2022/01/04 04:47:24;;;;;;;4.25;3.25;;;9.70;90.60;;;;;;5052855;28;20312;-60
2022/01/04 04:49:52;;;;;;;3.13;2.65;;;9.70;90.60;;;;;;5052824;28;20211;-59
2022/01/04 04:52:21;;;;;;;3.10;2.95;;;9.70;90.10;;;;;;5052902;28;20366;-58
2022/01/04 04:54:48;;;;;;;3.40;3.25;;;9.70;90.60;;;;;;5052863;28;20651;-59
2022/01/04 04:57:15;;;;;;;3.40;2.97;;;9.70;90.30;;;;;;5051456;28;20201;-60
2022/01/04 04:59:42;;;;;;;3.40;3.20;;;9.70;90.70;;;;;;5052580;28;20292;-65
2022/01/04 05:02:09;;;;;;;4.28;3.00;;;9.70;90.60;;;;;;5052830;28;20201;-57
2022/01/04 05:04:37;;;;;;;2.53;2.40;;;9.70;91.10;;;;;;5052747;28;20208;-61
2022/01/04 05:07:04;;;;;;;3.55;3.28;;;9.70;91.10;;;;;;5052760;28;20235;-60
2022/01/04 05:09:33;;;;;;;3.22;3.03;;;9.70;91.30;;;;;;5052721;28;20205;-60
2022/01/04 05:12:00;;;;;;;3.40;3.20;;;9.60;91.80;;;;;;5051133;28;20726;-63
2022/01/04 05:14:26;;;;;;;3.00;2.85;;;9.70;91.80;;;;;;5052708;28;20682;-56
2022/01/04 05:16:53;;;;;;;2.97;2.88;;;9.60;91.60;;;;;;5052508;28;20595;-60
2022/01/04 05:19:20;;;;;;;3.30;3.10;;;9.60;91.50;;;;;;5052628;28;20296;-60
2022/01/04 05:21:47;;;;;;;3.50;3.20;;;9.60;92.10;;;;;;5052661;28;20651;-58
2022/01/04 05:24:14;;;;;;;3.25;3.08;;;9.60;92.00;;;;;;5052607;28;20202;-66
2022/01/04 05:26:42;;;;;;;3.50;3.30;;;9.60;92.80;;;;;;5051258;28;20288;-62
2022/01/04 05:29:09;;;;;;;2.85;2.65;;;9.60;92.90;;;;;;5052515;28;20239;-60
2022/01/04 05:31:36;;;;;;;3.03;2.78;;;9.50;93.10;;;;;;5052458;28;20296;-61
2022/01/04 05:34:03;;;;;;;3.55;3.25;;;9.50;93.30;;;;;;5052511;28;20201;-62
2022/01/04 05:36:29;;;;;;;2.83;2.70;;;9.50;94.00;;;;;;5052416;28;20241;-69
2022/01/04 05:38:56;;;;;;;3.40;3.22;;;9.50;94.10;;;;;;5052401;28;20220;-61
2022/01/04 05:41:23;;;;;;;3.17;2.97;;;9.50;94.30;;;;;;5051215;28;20563;-61
2022/01/04 05:43:51;;;;;;;4.57;3.13;;;9.40;94.60;;;;;;5052368;28;20623;-62
2022/01/04 05:46:18;;;;;;;2.97;2.70;;;9.50;95.10;;;;;;5052209;28;20315;-60
2022/01/04 05:48:45;;;;;;;2.90;2.70;;;9.50;95.10;;;;;;5052359;28;20691;-67
2022/01/04 05:51:12;;;;;;;2.97;2.78;;;9.50;95.40;;;;;;5052253;28;20568;-61
2022/01/04 05:53:39;;;;;;;2.90;2.70;;;9.40;95.30;;;;;;5052378;28;20248;-61
2022/01/04 05:56:06;;;;;;;3.90;3.10;;;9.40;95.40;;;;;;5051008;28;20564;-70
2022/01/04 05:58:33;;;;;;;3.08;2.88;;;9.40;95.70;;;;;;5052025;28;20211;-60
2022/01/04 06:01:01;;;;;;;2.90;2.60;;;9.40;96.10;;;;;;5052313;28;20205;-63
2022/01/04 06:03:28;;;;;;;3.05;2.85;;;9.40;96.10;;;;;;5052300;28;20243;-58
2022/01/04 06:05:55;;;;;;;3.00;2.75;;;9.40;96.30;;;;;;5052206;28;20225;-66
2022/01/04 06:08:22;;;;;;;2.67;2.47;;;9.40;96.20;;;;;;5052140;28;20261;-58
2022/01/04 06:10:51;;;;;;;2.92;1.92;;;9.40;96.30;;;;;;5051870;28;20272;-68
2022/01/04 06:16:05;;;;;;;2.50;2.40;;;9.50;96.30;;;;;;5055729;28;20691;-63
2022/01/04 06:18:32;;;;;;;3.60;2.55;;;9.50;96.30;;;;;;5055630;28;20211;-67
2022/01/04 06:20:59;;;;;;;2.50;2.40;;;9.50;96.30;;;;;;5055601;28;20204;-73
2022/01/04 06:23:26;;;;;;;2.40;2.22;;;9.50;96.30;;;;;;5055569;28;20212;-69
2022/01/04 06:25:53;;;;;;;3.08;2.80;;;9.60;96.30;;;;;;5054141;28;20201;-63
2022/01/04 06:28:20;;;;;;;2.35;2.20;;;9.50;96.30;;;;;;5055284;28;20240;-68
2022/01/04 06:30:50;;;;;;;3.85;2.60;;;9.60;96.30;;;;;;5055410;28;20198;-68
2022/01/04 06:33:20;;;;;;;2.58;2.38;;;9.60;96.30;;;;;;5055436;28;20201;-62
2022/01/04 06:35:47;;;;;;;2.53;2.33;;;9.60;96.30;;;;;;5055317;28;20205;-66
2022/01/04 06:38:14;;;;;;;2.60;2.40;;;9.50;96.30;;;;;;5055207;28;20296;-65
2022/01/04 06:40:41;;;;;;;2.58;2.38;;;9.50;96.30;;;;;;5054094;28;20205;-70
2022/01/04 06:43:08;;;;;;;3.13;2.83;;;9.50;96.30;;;;;;5054974;28;20207;-63
2022/01/04 06:45:35;;;;;;;2.88;2.67;;;9.50;96.30;;;;;;5055358;28;20216;-64
2022/01/04 06:48:02;;;;;;;2.60;2.40;;;9.50;96.30;;;;;;5055030;28;20235;-65
2022/01/04 06:50:30;;;;;;;2.80;2.58;;;9.50;96.30;;;;;;5055055;28;20288;-67
2022/01/04 06:52:57;;;;;;;2.38;2.17;;;9.50;96.30;;;;;;5054828;28;20210;-62
2022/01/04 06:55:24;;;;;;;2.35;2.10;;;9.50;96.30;;;;;;5054510;28;20206;-59
2022/01/04 06:57:51;;;;;;;2.35;2.15;;;9.60;96.30;;;;;;5054387;28;20237;-65
2022/01/04 07:00:18;;;;;;;2.30;2.10;;;9.60;96.30;;;;;;5054907;28;20243;-65
2022/01/04 07:02:45;;;;;;;2.20;2.00;;;9.60;96.30;;;;;;5054842;28;20208;-61
2022/01/04 07:05:12;;;;;;;2.15;1.92;;;9.50;96.30;;;;;;5054784;28;20292;-71
2022/01/04 07:07:40;;;;;;;2.70;2.00;;;9.50;96.30;;;;;;5054489;28;20547;-66
2022/01/04 07:10:08;;;;;;;2.42;2.22;;;9.50;96.30;;;;;;5054570;28;20197;-63
2022/01/04 07:12:35;;;;;;;2.40;2.20;;;9.60;96.30;;;;;;5053236;28;20652;-63
2022/01/04 07:15:02;;;;;;;2.40;2.20;;;9.60;96.30;;;;;;5054647;28;20317;-67
2022/01/04 07:17:28;;;;;;;2.05;1.85;;;9.60;96.30;;;;;;5054561;28;20681;-58
2022/01/04 07:19:55;;;;;;;3.15;2.40;;;9.50;96.30;;;;;;5054364;28;20292;-60
2022/01/04 07:22:22;;;;;;;2.50;2.30;;;9.50;96.30;;;;;;5054312;28;20415;-63
2022/01/04 07:24:50;;;;;;;3.05;2.22;;;9.60;96.30;;;;;;5054452;28;20540;-60
2022/01/04 07:27:17;;;;;;;2.25;2.10;;;9.60;96.30;;;;;;5052928;28;20200;-62
2022/01/04 07:29:44;;;;;;;2.50;2.30;;;9.60;96.30;;;;;;5054230;28;20588;-59
2022/01/04 07:32:11;;;;;;;2.00;1.90;;;9.60;96.30;;;;;;5054315;28;20297;-61
2022/01/04 07:34:38;;;;;;;2.85;2.00;;;9.60;96.30;;;;;;5054110;28;20206;-61
2022/01/04 07:37:05;;;;;;;3.22;2.17;;;9.60;96.30;;;;;;5054175;28;20201;-60
2022/01/04 07:39:32;;;;;;;2.35;2.15;;;9.70;96.30;;;;;;5054219;28;20215;-59
2022/01/04 07:42:02;;;;;;;3.25;1.70;;;9.70;96.30;;;;;;5052693;28;20622;-58
2022/01/04 07:44:29;;;;;;;2.50;2.30;;;9.80;96.30;;;;;;5054061;28;20201;-60
2022/01/04 07:46:56;;;;;;;2.17;1.98;;;9.80;96.30;;;;;;5053996;28;20213;-68
2022/01/04 07:49:22;;;;;;;2.38;1.90;;;9.90;96.30;;;;;;5053826;28;20587;-62
2022/01/04 07:51:49;;;;;;;3.05;1.80;;;10.00;96.30;;;;;;5053861;28;20213;-59
2022/01/04 07:54:17;;;;;;;2.25;2.08;;;10.10;95.70;;;;;;5053810;28;20695;-58
2022/01/04 07:56:44;;;;;;;2.13;2.03;;;10.20;95.50;;;;;;5052809;28;20296;-64
2022/01/04 07:59:12;;;;;;;1.77;1.67;;;10.30;94.90;;;;;;5053614;28;20209;-62
2022/01/04 08:01:39;;;;;;;2.45;2.25;;;10.40;94.70;;;;;;5053712;28;20201;-60
2022/01/04 08:04:06;;;;;;;2.88;2.67;;;10.40;93.90;;;;;;5053585;28;20213;-61
2022/01/04 08:06:33;;;;;;;4.13;2.33;;;10.50;93.40;;;;;;5053499;28;20237;-63
2022/01/04 08:08:59;;;;;;;3.03;2.75;;;10.60;93.30;;;;;;5053460;28;20232;-60
2022/01/04 08:11:26;;;;;;;2.70;2.60;;;10.60;93.60;;;;;;5052309;28;20247;-62
2022/01/04 08:13:54;;;;;;;2.90;2.70;;;10.70;93.20;;;;;;5053329;28;20255;-59
2022/01/04 08:16:22;;;;;;;3.30;3.10;;;10.70;92.90;;;;;;5053369;28;20722;-61
2022/01/04 08:18:49;;;;;;;3.15;2.95;;;10.70;92.90;;;;;;5053363;28;20228;-59
2022/01/04 08:21:16;;;;;;;3.08;2.95;;;10.70;93.00;;;;;;5053272;28;20205;-61
2022/01/04 08:23:43;;;;;;;3.40;3.20;;;10.80;92.50;;;;;;5053258;28;20292;-62
2022/01/04 08:26:10;;;;;;;2.90;2.70;;;10.80;92.70;;;;;;5052006;28;20296;-62
2022/01/04 08:28:37;;;;;;;3.20;3.00;;;10.80;92.80;;;;;;5052951;28;20235;-62
2022/01/04 08:31:03;;;;;;;2.90;2.80;;;10.80;92.70;;;;;;5052945;28;20237;-62
2022/01/04 08:33:32;;;;;;;3.45;3.15;;;10.80;92.70;;;;;;5052727;28;20206;-66
2022/01/04 08:35:58;;;;;;;2.88;2.78;;;10.80;92.40;;;;;;5053097;28;20288;-59
2022/01/04 08:38:25;;;;;;;3.33;3.22;;;10.90;92.60;;;;;;5053080;28;20235;-62
2022/01/04 08:40:52;;;;;;;3.63;3.42;;;10.90;92.40;;;;;;5051787;28;20212;-63
2022/01/04 08:43:19;;;;;;;3.42;3.22;;;10.90;91.90;;;;;;5052937;28;20289;-59
2022/01/04 08:45:47;;;;;;;3.53;3.15;;;10.90;91.90;;;;;;5052985;28;20201;-64
2022/01/04 08:48:13;;;;;;;3.78;3.50;;;10.90;91.60;;;;;;5052780;28;20702;-68
2022/01/04 08:50:44;;;;;;;2.60;2.50;;;11.00;91.60;;;;;;5052921;28;20205;-58
2022/01/04 08:53:13;;;;;;;3.60;3.40;;;11.00;91.80;;;;;;5052871;28;20209;-61
2022/01/04 08:55:40;;;;;;;2.80;2.70;;;11.00;91.90;;;;;;5051543;28;20197;-59
2022/01/04 08:58:07;;;;;;;3.40;3.30;;;11.00;91.40;;;;;;5052660;28;20289;-58
2022/01/04 09:00:35;;;;;;;3.65;3.10;;;10.90;91.70;;;;;;5052751;28;20656;-60
2022/01/04 09:03:02;;;;;;;3.47;3.38;;;11.00;91.40;;;;;;5052836;28;20745;-59
2022/01/04 09:05:29;;;;;;;2.70;2.50;;;11.00;90.40;;;;;;5052775;28;20240;-59
2022/01/04 09:07:57;;;;;;;3.58;3.45;;;11.10;91.00;;;;;;5052606;28;20240;-60
2022/01/04 09:10:24;;;;;;;3.90;3.70;;;11.10;90.30;;;;;;5052150;28;20240;-61
2022/01/04 09:12:58;;;;;;;3.67;3.47;;;11.10;90.30;;;;;;5052005;28;20233;-58
2022/01/04 09:15:47;;;;;;;4.00;3.80;;;11.20;90.00;;;;;;5052685;28;20229;-62
2022/01/04 09:20:59;;;;;;;3.53;3.40;;;11.10;90.10;;;;;;5052483;28;20196;-59
2022/01/04 09:23:28;;;;;;;3.67;3.47;;;11.10;90.00;;;;;;5052664;28;20197;-61
2022/01/04 09:25:55;;;;;;;3.67;3.47;;;11.10;90.80;;;;;;5051192;28;20211;-60
2022/01/04 09:28:23;;;;;;;3.72;3.42;;;11.10;89.80;;;;;;5052248;28;20212;-65
2022/01/04 09:30:52;;;;;;;3.83;3.63;;;11.10;89.90;;;;;;5052520;28;20201;-60
2022/01/04 09:33:19;;;;;;;4.00;3.80;;;11.10;90.30;;;;;;5052482;28;20209;-61
2022/01/04 09:35:46;;;;;;;3.60;3.33;;;11.10;90.90;;;;;;5052336;28;20205;-62
2022/01/04 09:38:14;;;;;;;2.83;2.63;;;11.00;91.40;;;;;;5052524;28;20205;-61
2022/01/04 09:40:42;;;;;;;3.40;3.20;;;11.00;91.60;;;;;;5051174;28;20197;-59
2022/01/04 09:43:09;;;;;;;4.30;2.80;;;11.00;92.00;;;;;;5052209;28;20225;-62
2022/01/04 09:45:36;;;;;;;3.10;2.80;;;11.00;92.30;;;;;;5053196;28;20205;-67
2022/01/04 09:48:03;;;;;;;3.17;2.85;;;11.00;92.00;;;;;;5056140;28;20208;-60
2022/01/04 09:50:32;;;;;;;3.38;3.17;;;11.00;92.20;;;;;;5056300;28;20699;-65
2022/01/04 09:53:00;;;;;;;3.08;2.97;;;11.00;92.20;;;;;;5056188;28;20211;-69
2022/01/04 09:55:27;;;;;;;3.10;2.90;;;10.90;92.30;;;;;;5055309;28;20231;-65
2022/01/04 09:57:55;;;;;;;2.80;2.70;;;10.90;92.70;;;;;;5055911;28;20765;-65
2022/01/04 10:00:23;;;;;;;3.20;3.08;;;10.90;93.00;;;;;;5055986;28;20617;-69
2022/01/04 10:02:51;;;;;;;2.95;2.85;;;10.90;92.60;;;;;;5055848;28;20280;-68
2022/01/04 10:05:20;;;;;;;2.88;2.72;;;10.90;93.00;;;;;;5055896;28;20596;-65
2022/01/04 10:07:48;;;;;;;3.10;2.90;;;10.90;92.90;;;;;;5055875;28;20248;-68
2022/01/04 10:10:16;;;;;;;2.47;2.38;;;10.90;92.70;;;;;;5055554;28;20290;-65
2022/01/04 10:12:52;;;;;;;2.85;2.65;;;10.90;92.90;;;;;;5054238;28;20678;-60
2022/01/04 10:15:39;;;;;;;3.33;3.13;;;10.90;92.60;;;;;;5055545;28;20228;-69
2022/01/04 10:18:21;;;;;;;3.53;3.33;;;10.90;93.10;;;;;;5055689;28;20201;-62
2022/01/04 10:20:52;;;;;;;3.03;2.80;;;10.90;92.90;;;;;;5055563;28;20205;-66
2022/01/04 10:23:22;;;;;;;3.35;3.05;;;10.80;93.20;;;;;;5055478;28;20209;-68
2022/01/04 10:25:50;;;;;;;2.80;2.70;;;10.80;92.50;;;;;;5054014;28;20206;-67
2022/01/04 10:28:30;;;;;;;2.83;2.60;;;10.80;92.70;;;;;;5055442;28;20202;-63
2022/01/04 10:31:02;;;;;;;2.95;2.85;;;10.90;92.00;;;;;;5055536;28;20297;-75
2022/01/04 10:33:31;;;;;;;3.00;2.80;;;10.90;91.80;;;;;;5055507;28;20298;-63
2022/01/04 10:35:59;;;;;;;3.72;3.42;;;10.90;91.20;;;;;;5055404;28;20228;-67
2022/01/04 10:38:27;;;;;;;3.67;3.47;;;10.90;90.90;;;;;;5055170;28;20603;-62
2022/01/04 10:40:59;;;;;;;3.42;3.20;;;10.90;90.90;;;;;;5054028;28;20211;-64
2022/01/04 10:43:29;;;;;;;3.72;3.53;;;10.90;91.30;;;;;;5055041;28;20209;-68
2022/01/04 10:45:56;;;;;;;4.18;3.97;;;11.00;90.80;;;;;;5055157;28;20202;-62
2022/01/04 10:48:26;;;;;;;3.80;3.60;;;11.00;89.90;;;;;;5055270;28;20292;-68
2022/01/04 10:50:55;;;;;;;3.40;3.20;;;11.00;90.90;;;;;;5054946;28;20589;-64
2022/01/04 10:53:28;;;;;;;3.67;3.53;;;11.00;90.70;;;;;;5055220;28;20555;-72
2022/01/04 10:55:58;;;;;;;3.50;3.30;;;11.00;89.90;;;;;;5053571;28;20237;-66
2022/01/04 10:58:28;;;;;;;3.60;3.20;;;11.00;90.10;;;;;;5054729;28;20300;-64
2022/01/04 11:00:59;;;;;;;3.60;3.40;;;11.00;89.70;;;;;;5054941;28;20221;-63
2022/01/04 11:03:29;;;;;;;3.85;3.55;;;11.00;89.60;;;;;;5054809;28;20201;-62
2022/01/04 11:05:59;;;;;;;3.22;2.92;;;11.00;89.90;;;;;;5054763;28;20205;-66
2022/01/04 11:08:28;;;;;;;3.50;3.30;;;11.00;89.10;;;;;;5054713;28;20739;-66
2022/01/04 11:10:55;;;;;;;3.05;2.85;;;11.00;90.00;;;;;;5053325;28;20248;-61
2022/01/04 11:13:22;;;;;;;2.75;2.55;;;11.00;89.40;;;;;;5054428;28;20209;-63
2022/01/04 11:15:49;;;;;;;3.00;2.70;;;11.00;88.70;;;;;;5054580;28;20245;-66
2022/01/04 11:18:16;;;;;;;3.08;2.40;;;11.10;88.00;;;;;;5054584;28;20201;-68
2022/01/04 11:20:46;;;;;;;2.70;2.50;;;11.10;88.20;;;;;;5054490;28;20292;-58
2022/01/04 11:23:16;;;;;;;3.00;2.80;;;11.20;88.60;;;;;;5054357;28;20232;-65
2022/01/04 11:25:45;;;;;;;2.50;2.40;;;11.20;88.40;;;;;;5053161;28;20201;-67
2022/01/04 11:28:15;;;;;;;2.72;2.53;;;11.30;88.50;;;;;;5054200;28;20211;-61
2022/01/04 11:30:54;;;;;;;2.70;2.50;;;11.30;88.90;;;;;;5054279;28;20328;-60
2022/01/04 11:33:26;;;;;;;2.75;2.55;;;11.30;89.10;;;;;;5054270;28;20223;-68
2022/01/04 11:35:56;;;;;;;2.90;2.60;;;11.20;89.00;;;;;;5054280;28;20212;-66
2022/01/04 11:38:33;;;;;;;3.03;2.83;;;11.20;89.90;;;;;;5054017;28;20201;-67
2022/01/04 11:41:01;;;;;;;2.85;2.33;;;11.10;89.70;;;;;;5052735;28;20209;-66
2022/01/04 11:43:31;;;;;;;2.55;2.35;;;11.20;90.40;;;;;;5053966;28;20206;-65
2022/01/04 11:45:58;;;;;;;2.85;2.33;;;11.10;90.00;;;;;;5053929;28;20205;-60
2022/01/04 11:48:27;;;;;;;2.80;2.60;;;11.20;90.70;;;;;;5053900;28;20691;-66
2022/01/04 11:50:57;;;;;;;5.20;2.60;;;11.10;90.70;;;;;;5053955;28;20233;-60
2022/01/04 11:53:24;;;;;;;6.50;2.80;;;11.10;90.50;;;;;;5053858;28;20225;-66
2022/01/04 11:55:53;;;;;;;2.80;2.60;;;11.00;91.10;;;;;;5052513;28;20215;-69
2022/01/04 11:58:25;;;;;;;3.20;2.90;;;11.00;91.60;;;;;;5053653;28;20197;-69
2022/01/04 12:01:02;;;;;;;2.63;2.42;;;11.00;91.90;;;;;;5053714;28;20241;-71
2022/01/04 12:03:41;;;;;;;3.08;2.60;;;11.00;91.90;;;;;;5053656;28;20212;-64
2022/01/04 12:06:11;;;;;;;2.95;2.65;;;11.00;92.10;;;;;;5053619;28;20215;-62
2022/01/04 12:08:41;;;;;;;2.75;2.50;;;11.00;92.70;;;;;;5052840;28;20280;-65
2022/01/04 12:11:22;;;;;;;3.20;2.25;;;10.90;92.20;;;;;;5051956;28;20306;-67
2022/01/04 12:13:51;;;;;;;2.83;2.47;;;10.90;92.80;;;;;;5053328;28;20231;-65
2022/01/04 12:16:31;;;;;;;3.67;2.55;;;10.90;92.60;;;;;;5053480;28;20719;-66
2022/01/04 12:18:58;;;;;;;2.75;2.50;;;10.90;92.40;;;;;;5053547;28;20236;-62
2022/01/04 12:21:29;;;;;;;6.30;2.90;;;10.90;92.30;;;;;;5053367;28;20244;-68
2022/01/04 12:23:57;;;;;;;3.00;2.47;;;10.90;92.60;;;;;;5053296;28;20205;-62
2022/01/04 12:26:27;;;;;;;3.00;2.38;;;10.90;92.10;;;;;;5051979;28;20288;-64
2022/01/04 12:29:23;;;;;;;2.85;2.65;;;10.90;92.10;;;;;;5053100;28;20640;-69
2022/01/04 12:31:52;;;;;;;2.80;2.60;;;10.90;92.20;;;;;;5053182;28;20211;-63
2022/01/04 12:34:33;;;;;;;2.63;2.28;;;10.90;92.10;;;;;;5053168;28;20201;-68
2022/01/04 12:37:03;;;;;;;2.90;2.60;;;10.90;92.00;;;;;;5053137;28;20205;-62
2022/01/04 12:39:40;;;;;;;6.50;2.50;;;10.80;92.00;;;;;;5053062;28;20215;-64
2022/01/04 12:42:08;;;;;;;3.22;2.40;;;10.80;91.90;;;;;;5052025;28;20208;-67
2022/01/04 12:44:36;;;;;;;2.72;2.33;;;10.80;91.90;;;;;;5052821;28;20212;-68
2022/01/04 12:47:04;;;;;;;3.88;2.40;;;10.90;92.20;;;;;;5053026;28;20205;-68
2022/01/04 12:49:33;;;;;;;3.08;2.78;;;10.80;92.30;;;;;;5052797;28;20225;-60
2022/01/04 12:52:03;;;;;;;2.50;2.30;;;10.80;92.10;;;;;;5052708;28;20213;-64
2022/01/04 12:54:32;;;;;;;5.28;2.72;;;10.80;91.50;;;;;;5052830;28;20231;-65
2022/01/04 12:57:00;;;;;;;2.78;2.47;;;10.80;92.10;;;;;;5051525;28;20201;-59
2022/01/04 12:59:35;;;;;;;2.95;2.22;;;10.80;92.80;;;;;;5052846;28;20301;-69
2022/01/04 13:02:04;;;;;;;2.97;2.70;;;10.80;93.00;;;;;;5052741;28;20286;-68
2022/01/04 13:04:33;;;;;;;4.82;2.40;;;10.70;93.30;;;;;;5052733;28;20221;-68
2022/01/04 13:07:02;;;;;;;3.08;2.78;;;10.80;93.60;;;;;;5052732;28;20563;-61